sensor_id;sensor_type;location;lat;lon;timestamp;P1;durP1;ratioP1;P2;durP2;ratioP2
14098;SDS011;7126;48.458;7.930;2023-02-28T00:02:16;0.10;;;0.10;;
14098;SDS011;7126;48.458;7.930;2023-02-28T00:04:42;0.17;;;0.17;;
14098;SDS011;7126;48.458;7.930;2023-02-28T00:07:08;0.40;;;0.40;;
14098;SDS011;7126;48.458;7.930;2023-02-28T00:09:34;0.30;;;0.30;;
14098;SDS011;7126;48.458;7.930;2023-02-28T00:11:59;0.20;;;0.17;;
14098;SDS011;7126;48.458;7.930;2023-02-28T00:14:25;0.13;;;0.13;;
14098;SDS011;7126;48.458;7.930;2023-02-28T00:16:50;0.53;;;0.53;;
14098;SDS011;7126;48.458;7.930;2023-02-28T00:19:16;0.30;;;0.30;;
14098;SDS011;7126;48.458;7.930;2023-02-28T00:21:41;0.20;;;0.20;;
14098;SDS011;7126;48.458;7.930;2023-02-28T00:24:07;1.10;;;1.00;;
14098;SDS011;7126;48.458;7.930;2023-02-28T00:26:33;0.40;;;0.20;;
14098;SDS011;7126;48.458;7.930;2023-02-28T00:28:59;0.03;;;0.03;;
14098;SDS011;7126;48.458;7.930;2023-02-28T00:31:25;0.10;;;0.10;;
14098;SDS011;7126;48.458;7.930;2023-02-28T00:33:50;0.10;;;0.10;;
14098;SDS011;7126;48.458;7.930;2023-02-28T00:36:16;0.10;;;0.10;;
14098;SDS011;7126;48.458;7.930;2023-02-28T00:38:42;0.20;;;0.20;;
14098;SDS011;7126;48.458;7.930;2023-02-28T00:41:08;0.10;;;0.10;;
14098;SDS011;7126;48.458;7.930;2023-02-28T00:43:34;0.13;;;0.13;;
14098;SDS011;7126;48.458;7.930;2023-02-28T00:46:01;0.10;;;0.10;;
14098;SDS011;7126;48.458;7.930;2023-02-28T00:48:27;2.20;;;0.20;;
14098;SDS011;7126;48.458;7.930;2023-02-28T00:50:53;0.40;;;0.40;;
14098;SDS011;7126;48.458;7.930;2023-02-28T00:53:18;0.27;;;0.27;;
14098;SDS011;7126;48.458;7.930;2023-02-28T00:55:44;0.30;;;0.30;;
14098;SDS011;7126;48.458;7.930;2023-02-28T00:58:09;4.60;;;0.20;;
14098;SDS011;7126;48.458;7.930;2023-02-28T01:00:35;0.30;;;0.30;;
14098;SDS011;7126;48.458;7.930;2023-02-28T01:03:01;0.17;;;0.17;;
14098;SDS011;7126;48.458;7.930;2023-02-28T01:05:26;0.27;;;0.27;;
14098;SDS011;7126;48.458;7.930;2023-02-28T01:07:52;1.70;;;0.83;;
14098;SDS011;7126;48.458;7.930;2023-02-28T01:10:17;0.13;;;0.13;;
14098;SDS011;7126;48.458;7.930;2023-02-28T01:12:43;0.03;;;0.03;;
14098;SDS011;7126;48.458;7.930;2023-02-28T01:15:10;0.30;;;0.30;;
14098;SDS011;7126;48.458;7.930;2023-02-28T01:17:36;1.40;;;0.37;;
14098;SDS011;7126;48.458;7.930;2023-02-28T01:20:02;0.10;;;0.10;;
14098;SDS011;7126;48.458;7.930;2023-02-28T01:22:27;0.67;;;0.67;;
14098;SDS011;7126;48.458;7.930;2023-02-28T01:24:53;0.10;;;0.10;;
14098;SDS011;7126;48.458;7.930;2023-02-28T01:27:19;0.33;;;0.33;;
14098;SDS011;7126;48.458;7.930;2023-02-28T01:29:44;0.33;;;0.33;;
14098;SDS011;7126;48.458;7.930;2023-02-28T01:32:10;0.40;;;0.40;;
14098;SDS011;7126;48.458;7.930;2023-02-28T01:34:36;0.10;;;0.10;;
14098;SDS011;7126;48.458;7.930;2023-02-28T01:37:01;0.20;;;0.20;;
14098;SDS011;7126;48.458;7.930;2023-02-28T01:39:28;0.50;;;0.50;;
14098;SDS011;7126;48.458;7.930;2023-02-28T01:41:54;0.50;;;0.47;;
14098;SDS011;7126;48.458;7.930;2023-02-28T01:47:39;0.33;;;0.33;;
14098;SDS011;7126;48.458;7.930;2023-02-28T01:50:12;0.30;;;0.30;;
14098;SDS011;7126;48.458;7.930;2023-02-28T01:52:42;0.67;;;0.67;;
14098;SDS011;7126;48.458;7.930;2023-02-28T01:55:10;0.37;;;0.37;;
14098;SDS011;7126;48.458;7.930;2023-02-28T01:57:38;1.20;;;0.87;;
14098;SDS011;7126;48.458;7.930;2023-02-28T02:00:13;0.00;;;0.00;;
14098;SDS011;7126;48.458;7.930;2023-02-28T02:02:41;0.10;;;0.10;;
14098;SDS011;7126;48.458;7.930;2023-02-28T02:05:14;0.30;;;0.30;;
14098;SDS011;7126;48.458;7.930;2023-02-28T02:07:42;0.40;;;0.40;;
14098;SDS011;7126;48.458;7.930;2023-02-28T02:10:13;0.10;;;0.10;;
14098;SDS011;7126;48.458;7.930;2023-02-28T02:21:24;0.40;;;0.40;;
14098;SDS011;7126;48.458;7.930;2023-02-28T02:33:25;0.20;;;0.20;;
14098;SDS011;7126;48.458;7.930;2023-02-28T02:36:15;0.20;;;0.20;;
14098;SDS011;7126;48.458;7.930;2023-02-28T02:38:53;0.10;;;0.10;;
14098;SDS011;7126;48.458;7.930;2023-02-28T02:41:36;0.60;;;0.30;;
14098;SDS011;7126;48.458;7.930;2023-02-28T02:44:10;0.20;;;0.20;;
14098;SDS011;7126;48.458;7.930;2023-02-28T02:46:48;0.60;;;0.60;;
14098;SDS011;7126;48.458;7.930;2023-02-28T02:49:22;0.13;;;0.13;;
14098;SDS011;7126;48.458;7.930;2023-02-28T02:51:53;0.00;;;0.00;;
14098;SDS011;7126;48.458;7.930;2023-02-28T02:54:22;0.10;;;0.10;;
14098;SDS011;7126;48.458;7.930;2023-02-28T02:56:53;0.10;;;0.10;;
14098;SDS011;7126;48.458;7.930;2023-02-28T02:59:23;0.57;;;0.57;;
14098;SDS011;7126;48.458;7.930;2023-02-28T03:01:50;0.50;;;0.50;;
14098;SDS011;7126;48.458;7.930;2023-02-28T03:04:20;0.40;;;0.40;;
14098;SDS011;7126;48.458;7.930;2023-02-28T03:06:48;0.50;;;0.50;;
14098;SDS011;7126;48.458;7.930;2023-02-28T03:09:19;0.93;;;0.50;;
14098;SDS011;7126;48.458;7.930;2023-02-28T03:11:48;1.17;;;0.77;;
14098;SDS011;7126;48.458;7.930;2023-02-28T03:17:03;0.30;;;0.30;;
14098;SDS011;7126;48.458;7.930;2023-02-28T03:20:07;0.03;;;0.03;;
14098;SDS011;7126;48.458;7.930;2023-02-28T03:22:47;0.07;;;0.07;;
14098;SDS011;7126;48.458;7.930;2023-02-28T03:25:38;0.13;;;0.13;;
14098;SDS011;7126;48.458;7.930;2023-02-28T03:30:54;0.30;;;0.30;;
14098;SDS011;7126;48.458;7.930;2023-02-28T03:33:28;0.17;;;0.17;;
14098;SDS011;7126;48.458;7.930;2023-02-28T03:35:59;0.03;;;0.03;;
14098;SDS011;7126;48.458;7.930;2023-02-28T03:38:37;0.20;;;0.20;;
14098;SDS011;7126;48.458;7.930;2023-02-28T03:41:17;0.40;;;0.40;;
14098;SDS011;7126;48.458;7.930;2023-02-28T03:46:35;0.97;;;0.97;;
14098;SDS011;7126;48.458;7.930;2023-02-28T03:49:23;0.07;;;0.07;;
14098;SDS011;7126;48.458;7.930;2023-02-28T03:51:52;0.83;;;0.40;;
14098;SDS011;7126;48.458;7.930;2023-02-28T03:54:21;0.47;;;0.47;;
14098;SDS011;7126;48.458;7.930;2023-02-28T03:56:55;0.77;;;0.20;;
14098;SDS011;7126;48.458;7.930;2023-02-28T03:59:28;0.60;;;0.60;;
14098;SDS011;7126;48.458;7.930;2023-02-28T04:01:59;0.00;;;0.00;;
14098;SDS011;7126;48.458;7.930;2023-02-28T04:04:25;0.20;;;0.20;;
14098;SDS011;7126;48.458;7.930;2023-02-28T04:06:51;0.20;;;0.20;;
14098;SDS011;7126;48.458;7.930;2023-02-28T04:09:17;0.13;;;0.13;;
14098;SDS011;7126;48.458;7.930;2023-02-28T04:11:49;0.40;;;0.40;;
14098;SDS011;7126;48.458;7.930;2023-02-28T04:14:16;0.10;;;0.10;;
14098;SDS011;7126;48.458;7.930;2023-02-28T04:16:42;0.30;;;0.30;;
14098;SDS011;7126;48.458;7.930;2023-02-28T04:19:09;0.33;;;0.33;;
14098;SDS011;7126;48.458;7.930;2023-02-28T04:21:43;0.17;;;0.17;;
14098;SDS011;7126;48.458;7.930;2023-02-28T04:24:11;0.97;;;0.73;;
14098;SDS011;7126;48.458;7.930;2023-02-28T04:26:45;0.50;;;0.50;;
14098;SDS011;7126;48.458;7.930;2023-02-28T04:29:13;0.10;;;0.10;;
14098;SDS011;7126;48.458;7.930;2023-02-28T04:31:45;0.30;;;0.30;;
14098;SDS011;7126;48.458;7.930;2023-02-28T04:34:11;0.20;;;0.20;;
14098;SDS011;7126;48.458;7.930;2023-02-28T04:36:37;0.47;;;0.20;;
14098;SDS011;7126;48.458;7.930;2023-02-28T04:39:02;0.13;;;0.13;;
14098;SDS011;7126;48.458;7.930;2023-02-28T04:41:29;0.20;;;0.20;;
14098;SDS011;7126;48.458;7.930;2023-02-28T04:43:54;0.60;;;0.37;;
14098;SDS011;7126;48.458;7.930;2023-02-28T04:46:21;0.70;;;0.70;;
14098;SDS011;7126;48.458;7.930;2023-02-28T04:48:46;0.30;;;0.30;;
14098;SDS011;7126;48.458;7.930;2023-02-28T04:51:13;0.30;;;0.30;;
14098;SDS011;7126;48.458;7.930;2023-02-28T04:53:40;0.23;;;0.23;;
14098;SDS011;7126;48.458;7.930;2023-02-28T04:56:07;0.53;;;0.53;;
14098;SDS011;7126;48.458;7.930;2023-02-28T04:58:35;0.30;;;0.30;;
14098;SDS011;7126;48.458;7.930;2023-02-28T05:01:01;0.27;;;0.27;;
14098;SDS011;7126;48.458;7.930;2023-02-28T05:03:37;0.20;;;0.20;;
14098;SDS011;7126;48.458;7.930;2023-02-28T05:06:05;0.10;;;0.10;;
14098;SDS011;7126;48.458;7.930;2023-02-28T05:08:31;0.20;;;0.20;;
14098;SDS011;7126;48.458;7.930;2023-02-28T05:10:57;0.30;;;0.30;;
14098;SDS011;7126;48.458;7.930;2023-02-28T05:13:22;0.10;;;0.10;;
14098;SDS011;7126;48.458;7.930;2023-02-28T05:15:48;0.27;;;0.27;;
14098;SDS011;7126;48.458;7.930;2023-02-28T05:18:14;0.23;;;0.23;;
14098;SDS011;7126;48.458;7.930;2023-02-28T05:20:39;0.30;;;0.23;;
14098;SDS011;7126;48.458;7.930;2023-02-28T05:23:05;0.23;;;0.23;;
14098;SDS011;7126;48.458;7.930;2023-02-28T05:25:30;1.03;;;0.30;;
14098;SDS011;7126;48.458;7.930;2023-02-28T05:27:56;0.30;;;0.30;;
14098;SDS011;7126;48.458;7.930;2023-02-28T05:30:21;0.10;;;0.10;;
14098;SDS011;7126;48.458;7.930;2023-02-28T05:32:49;0.00;;;0.00;;
14098;SDS011;7126;48.458;7.930;2023-02-28T05:35:16;0.40;;;0.40;;
14098;SDS011;7126;48.458;7.930;2023-02-28T05:37:41;0.57;;;0.43;;
14098;SDS011;7126;48.458;7.930;2023-02-28T05:40:07;0.30;;;0.30;;
14098;SDS011;7126;48.458;7.930;2023-02-28T05:42:36;0.20;;;0.20;;
14098;SDS011;7126;48.458;7.930;2023-02-28T05:45:02;0.33;;;0.33;;
14098;SDS011;7126;48.458;7.930;2023-02-28T05:47:29;0.30;;;0.30;;
14098;SDS011;7126;48.458;7.930;2023-02-28T05:49:54;0.60;;;0.60;;
14098;SDS011;7126;48.458;7.930;2023-02-28T05:52:20;0.27;;;0.27;;
14098;SDS011;7126;48.458;7.930;2023-02-28T05:54:46;0.20;;;0.20;;
14098;SDS011;7126;48.458;7.930;2023-02-28T05:57:12;0.20;;;0.20;;
14098;SDS011;7126;48.458;7.930;2023-02-28T05:59:37;0.20;;;0.20;;
14098;SDS011;7126;48.458;7.930;2023-02-28T06:02:05;0.47;;;0.47;;
14098;SDS011;7126;48.458;7.930;2023-02-28T06:04:31;0.27;;;0.27;;
14098;SDS011;7126;48.458;7.930;2023-02-28T06:06:57;0.23;;;0.23;;
14098;SDS011;7126;48.458;7.930;2023-02-28T06:09:22;0.60;;;0.60;;
14098;SDS011;7126;48.458;7.930;2023-02-28T06:11:48;0.40;;;0.40;;
14098;SDS011;7126;48.458;7.930;2023-02-28T06:14:14;0.40;;;0.40;;
14098;SDS011;7126;48.458;7.930;2023-02-28T06:16:41;0.37;;;0.37;;
14098;SDS011;7126;48.458;7.930;2023-02-28T06:19:08;0.50;;;0.50;;
14098;SDS011;7126;48.458;7.930;2023-02-28T06:21:34;0.40;;;0.40;;
14098;SDS011;7126;48.458;7.930;2023-02-28T06:24:00;0.97;;;0.63;;
14098;SDS011;7126;48.458;7.930;2023-02-28T06:26:26;0.60;;;0.30;;
14098;SDS011;7126;48.458;7.930;2023-02-28T06:28:52;0.40;;;0.40;;
14098;SDS011;7126;48.458;7.930;2023-02-28T06:31:18;0.50;;;0.50;;
14098;SDS011;7126;48.458;7.930;2023-02-28T06:33:44;0.57;;;0.30;;
14098;SDS011;7126;48.458;7.930;2023-02-28T06:36:11;0.63;;;0.40;;
14098;SDS011;7126;48.458;7.930;2023-02-28T06:38:37;0.63;;;0.30;;
14098;SDS011;7126;48.458;7.930;2023-02-28T06:41:05;0.40;;;0.33;;
14098;SDS011;7126;48.458;7.930;2023-02-28T06:43:33;0.30;;;0.30;;
14098;SDS011;7126;48.458;7.930;2023-02-28T06:46:01;0.17;;;0.17;;
14098;SDS011;7126;48.458;7.930;2023-02-28T06:48:27;0.40;;;0.40;;
14098;SDS011;7126;48.458;7.930;2023-02-28T06:53:52;0.77;;;0.77;;
14098;SDS011;7126;48.458;7.930;2023-02-28T06:56:17;0.37;;;0.37;;
14098;SDS011;7126;48.458;7.930;2023-02-28T06:58:48;0.30;;;0.30;;
14098;SDS011;7126;48.458;7.930;2023-02-28T07:01:14;0.30;;;0.30;;
14098;SDS011;7126;48.458;7.930;2023-02-28T07:03:40;0.20;;;0.20;;
14098;SDS011;7126;48.458;7.930;2023-02-28T07:06:05;0.60;;;0.60;;
14098;SDS011;7126;48.458;7.930;2023-02-28T07:08:32;0.53;;;0.30;;
14098;SDS011;7126;48.458;7.930;2023-02-28T07:10:58;0.20;;;0.20;;
14098;SDS011;7126;48.458;7.930;2023-02-28T07:13:24;0.30;;;0.30;;
14098;SDS011;7126;48.458;7.930;2023-02-28T07:15:57;0.37;;;0.17;;
14098;SDS011;7126;48.458;7.930;2023-02-28T07:18:30;0.30;;;0.30;;
14098;SDS011;7126;48.458;7.930;2023-02-28T07:20:56;0.97;;;0.30;;
14098;SDS011;7126;48.458;7.930;2023-02-28T07:23:21;2.83;;;0.80;;
14098;SDS011;7126;48.458;7.930;2023-02-28T07:25:47;0.37;;;0.37;;
14098;SDS011;7126;48.458;7.930;2023-02-28T07:28:15;0.80;;;0.40;;
14098;SDS011;7126;48.458;7.930;2023-02-28T07:30:40;0.30;;;0.30;;
14098;SDS011;7126;48.458;7.930;2023-02-28T07:33:06;1.13;;;1.03;;
14098;SDS011;7126;48.458;7.930;2023-02-28T07:35:32;0.43;;;0.30;;
14098;SDS011;7126;48.458;7.930;2023-02-28T07:37:58;0.50;;;0.50;;
14098;SDS011;7126;48.458;7.930;2023-02-28T07:40:24;0.30;;;0.30;;
14098;SDS011;7126;48.458;7.930;2023-02-28T07:42:50;0.37;;;0.30;;
14098;SDS011;7126;48.458;7.930;2023-02-28T07:45:16;0.47;;;0.47;;
14098;SDS011;7126;48.458;7.930;2023-02-28T07:47:42;0.60;;;0.60;;
14098;SDS011;7126;48.458;7.930;2023-02-28T07:50:09;0.40;;;0.40;;
14098;SDS011;7126;48.458;7.930;2023-02-28T07:52:37;0.30;;;0.30;;
14098;SDS011;7126;48.458;7.930;2023-02-28T07:55:03;0.53;;;0.53;;
14098;SDS011;7126;48.458;7.930;2023-02-28T07:57:30;0.93;;;0.67;;
14098;SDS011;7126;48.458;7.930;2023-02-28T07:59:55;0.83;;;0.67;;
14098;SDS011;7126;48.458;7.930;2023-02-28T08:02:21;1.07;;;0.90;;
14098;SDS011;7126;48.458;7.930;2023-02-28T08:04:46;1.43;;;1.43;;
14098;SDS011;7126;48.458;7.930;2023-02-28T08:07:13;0.63;;;0.63;;
14098;SDS011;7126;48.458;7.930;2023-02-28T08:09:39;0.53;;;0.53;;
14098;SDS011;7126;48.458;7.930;2023-02-28T08:12:05;0.87;;;0.87;;
14098;SDS011;7126;48.458;7.930;2023-02-28T08:14:32;0.80;;;0.80;;
14098;SDS011;7126;48.458;7.930;2023-02-28T08:16:58;1.07;;;0.53;;
14098;SDS011;7126;48.458;7.930;2023-02-28T08:19:23;0.67;;;0.67;;
14098;SDS011;7126;48.458;7.930;2023-02-28T08:21:49;0.60;;;0.60;;
14098;SDS011;7126;48.458;7.930;2023-02-28T08:24:14;0.37;;;0.37;;
14098;SDS011;7126;48.458;7.930;2023-02-28T08:26:40;0.63;;;0.63;;
14098;SDS011;7126;48.458;7.930;2023-02-28T08:29:05;0.37;;;0.37;;
14098;SDS011;7126;48.458;7.930;2023-02-28T08:31:31;2.07;;;1.37;;
14098;SDS011;7126;48.458;7.930;2023-02-28T08:33:56;0.80;;;0.80;;
14098;SDS011;7126;48.458;7.930;2023-02-28T08:36:23;0.50;;;0.50;;
14098;SDS011;7126;48.458;7.930;2023-02-28T08:38:49;0.67;;;0.67;;
14098;SDS011;7126;48.458;7.930;2023-02-28T08:41:15;0.83;;;0.83;;
14098;SDS011;7126;48.458;7.930;2023-02-28T08:43:40;0.87;;;0.70;;
14098;SDS011;7126;48.458;7.930;2023-02-28T08:46:06;0.63;;;0.60;;
14098;SDS011;7126;48.458;7.930;2023-02-28T08:48:34;0.67;;;0.67;;
14098;SDS011;7126;48.458;7.930;2023-02-28T08:51:03;0.53;;;0.47;;
14098;SDS011;7126;48.458;7.930;2023-02-28T08:53:34;0.33;;;0.33;;
14098;SDS011;7126;48.458;7.930;2023-02-28T08:56:02;0.30;;;0.30;;
14098;SDS011;7126;48.458;7.930;2023-02-28T08:58:32;0.30;;;0.30;;
14098;SDS011;7126;48.458;7.930;2023-02-28T09:00:59;0.40;;;0.40;;
14098;SDS011;7126;48.458;7.930;2023-02-28T09:03:25;0.50;;;0.50;;
14098;SDS011;7126;48.458;7.930;2023-02-28T09:05:59;0.93;;;0.57;;
14098;SDS011;7126;48.458;7.930;2023-02-28T09:08:27;0.70;;;0.70;;
14098;SDS011;7126;48.458;7.930;2023-02-28T09:10:53;0.60;;;0.60;;
14098;SDS011;7126;48.458;7.930;2023-02-28T09:13:21;0.10;;;0.10;;
14098;SDS011;7126;48.458;7.930;2023-02-28T09:15:47;0.80;;;0.80;;
14098;SDS011;7126;48.458;7.930;2023-02-28T09:18:13;1.30;;;0.53;;
14098;SDS011;7126;48.458;7.930;2023-02-28T09:20:40;3.50;;;0.93;;
14098;SDS011;7126;48.458;7.930;2023-02-28T09:23:07;0.93;;;0.93;;
14098;SDS011;7126;48.458;7.930;2023-02-28T09:25:34;0.50;;;0.50;;
14098;SDS011;7126;48.458;7.930;2023-02-28T09:28:00;0.40;;;0.40;;
14098;SDS011;7126;48.458;7.930;2023-02-28T09:30:25;0.77;;;0.57;;
14098;SDS011;7126;48.458;7.930;2023-02-28T09:32:51;0.70;;;0.70;;
14098;SDS011;7126;48.458;7.930;2023-02-28T09:35:18;0.47;;;0.47;;
14098;SDS011;7126;48.458;7.930;2023-02-28T09:37:46;0.70;;;0.70;;
14098;SDS011;7126;48.458;7.930;2023-02-28T09:40:12;0.30;;;0.30;;
14098;SDS011;7126;48.458;7.930;2023-02-28T09:42:40;2.00;;;0.93;;
14098;SDS011;7126;48.458;7.930;2023-02-28T09:45:07;0.50;;;0.50;;
14098;SDS011;7126;48.458;7.930;2023-02-28T09:47:52;1.77;;;0.80;;
14098;SDS011;7126;48.458;7.930;2023-02-28T09:52:51;0.77;;;0.70;;
14098;SDS011;7126;48.458;7.930;2023-02-28T09:55:20;0.60;;;0.60;;
14098;SDS011;7126;48.458;7.930;2023-02-28T09:57:50;0.83;;;0.83;;
14098;SDS011;7126;48.458;7.930;2023-02-28T10:02:56;0.80;;;0.80;;
14098;SDS011;7126;48.458;7.930;2023-02-28T10:05:33;0.53;;;0.53;;
14098;SDS011;7126;48.458;7.930;2023-02-28T10:08:13;0.60;;;0.60;;
14098;SDS011;7126;48.458;7.930;2023-02-28T10:10:45;0.73;;;0.70;;
14098;SDS011;7126;48.458;7.930;2023-02-28T10:16:05;0.30;;;0.30;;
14098;SDS011;7126;48.458;7.930;2023-02-28T10:21:36;0.40;;;0.40;;
14098;SDS011;7126;48.458;7.930;2023-02-28T10:29:45;0.20;;;0.20;;
14098;SDS011;7126;48.458;7.930;2023-02-28T10:32:14;0.85;;;0.85;;
14098;SDS011;7126;48.458;7.930;2023-02-28T10:34:42;0.63;;;0.63;;
14098;SDS011;7126;48.458;7.930;2023-02-28T10:37:09;0.50;;;0.50;;
14098;SDS011;7126;48.458;7.930;2023-02-28T10:39:42;1.07;;;0.90;;
14098;SDS011;7126;48.458;7.930;2023-02-28T10:42:21;0.20;;;0.20;;
14098;SDS011;7126;48.458;7.930;2023-02-28T10:44:47;0.90;;;0.77;;
14098;SDS011;7126;48.458;7.930;2023-02-28T10:47:16;1.23;;;1.03;;
14098;SDS011;7126;48.458;7.930;2023-02-28T10:49:46;0.57;;;0.57;;
14098;SDS011;7126;48.458;7.930;2023-02-28T10:52:14;0.73;;;0.60;;
14098;SDS011;7126;48.458;7.930;2023-02-28T10:55:23;0.50;;;0.50;;
14098;SDS011;7126;48.458;7.930;2023-02-28T10:57:50;0.50;;;0.47;;
14098;SDS011;7126;48.458;7.930;2023-02-28T11:00:20;0.90;;;0.90;;
14098;SDS011;7126;48.458;7.930;2023-02-28T11:02:50;0.57;;;0.57;;
14098;SDS011;7126;48.458;7.930;2023-02-28T11:05:29;0.50;;;0.50;;
14098;SDS011;7126;48.458;7.930;2023-02-28T11:07:59;0.93;;;0.93;;
14098;SDS011;7126;48.458;7.930;2023-02-28T11:10:37;0.90;;;0.90;;
14098;SDS011;7126;48.458;7.930;2023-02-28T11:13:03;0.87;;;0.87;;
14098;SDS011;7126;48.458;7.930;2023-02-28T11:15:31;1.40;;;1.33;;
14098;SDS011;7126;48.458;7.930;2023-02-28T11:20:54;0.80;;;0.40;;
14098;SDS011;7126;48.458;7.930;2023-02-28T11:23:21;0.70;;;0.70;;
14098;SDS011;7126;48.458;7.930;2023-02-28T11:25:52;0.90;;;0.80;;
14098;SDS011;7126;48.458;7.930;2023-02-28T11:28:26;1.53;;;1.43;;
14098;SDS011;7126;48.458;7.930;2023-02-28T11:31:33;0.70;;;0.70;;
14098;SDS011;7126;48.458;7.930;2023-02-28T11:33:51;4.13;;;0.80;;
14098;SDS011;7126;48.458;7.930;2023-02-28T11:36:22;1.90;;;1.07;;
14098;SDS011;7126;48.458;7.930;2023-02-28T11:38:53;0.60;;;0.60;;
14098;SDS011;7126;48.458;7.930;2023-02-28T11:44:23;0.60;;;0.60;;
14098;SDS011;7126;48.458;7.930;2023-02-28T11:47:15;2.17;;;0.73;;
14098;SDS011;7126;48.458;7.930;2023-02-28T11:49:45;0.57;;;0.57;;
14098;SDS011;7126;48.458;7.930;2023-02-28T11:55:07;1.58;;;1.58;;
14098;SDS011;7126;48.458;7.930;2023-02-28T12:11:15;0.98;;;0.98;;
14098;SDS011;7126;48.458;7.930;2023-02-28T12:19:16;1.15;;;1.10;;
14098;SDS011;7126;48.458;7.930;2023-02-28T12:22:29;1.15;;;1.05;;
14098;SDS011;7126;48.458;7.930;2023-02-28T12:27:38;1.42;;;1.33;;
14098;SDS011;7126;48.458;7.930;2023-02-28T12:30:25;0.88;;;0.88;;
14098;SDS011;7126;48.458;7.930;2023-02-28T12:35:32;1.13;;;1.13;;
14098;SDS011;7126;48.458;7.930;2023-02-28T12:38:04;1.17;;;1.05;;
14098;SDS011;7126;48.458;7.930;2023-02-28T12:40:45;1.17;;;1.13;;
14098;SDS011;7126;48.458;7.930;2023-02-28T12:43:21;1.42;;;1.20;;
14098;SDS011;7126;48.458;7.930;2023-02-28T12:45:51;0.80;;;0.80;;
14098;SDS011;7126;48.458;7.930;2023-02-28T12:48:40;0.90;;;0.90;;
14098;SDS011;7126;48.458;7.930;2023-02-28T12:51:07;1.58;;;1.48;;
14098;SDS011;7126;48.458;7.930;2023-02-28T12:53:52;1.88;;;1.17;;
14098;SDS011;7126;48.458;7.930;2023-02-28T12:56:42;0.55;;;0.55;;
14098;SDS011;7126;48.458;7.930;2023-02-28T13:02:16;1.55;;;1.35;;
14098;SDS011;7126;48.458;7.930;2023-02-28T13:10:52;0.65;;;0.65;;
14098;SDS011;7126;48.458;7.930;2023-02-28T13:13:24;1.92;;;1.83;;
14098;SDS011;7126;48.458;7.930;2023-02-28T13:18:30;0.98;;;0.98;;
14098;SDS011;7126;48.458;7.930;2023-02-28T13:20:57;1.30;;;1.30;;
14098;SDS011;7126;48.458;7.930;2023-02-28T13:23:57;1.27;;;1.27;;
14098;SDS011;7126;48.458;7.930;2023-02-28T13:32:18;0.47;;;0.47;;
14098;SDS011;7126;48.458;7.930;2023-02-28T13:34:33;0.80;;;0.80;;
14098;SDS011;7126;48.458;7.930;2023-02-28T13:39:57;1.10;;;1.10;;
14098;SDS011;7126;48.458;7.930;2023-02-28T13:42:50;0.82;;;0.82;;
14098;SDS011;7126;48.458;7.930;2023-02-28T13:45:28;1.15;;;1.15;;
14098;SDS011;7126;48.458;7.930;2023-02-28T13:48:05;1.25;;;1.15;;
14098;SDS011;7126;48.458;7.930;2023-02-28T13:50:42;1.40;;;1.20;;
14098;SDS011;7126;48.458;7.930;2023-02-28T14:01:32;1.30;;;1.20;;
14098;SDS011;7126;48.458;7.930;2023-02-28T14:04:30;1.08;;;1.08;;
14098;SDS011;7126;48.458;7.930;2023-02-28T14:07:05;1.52;;;1.48;;
14098;SDS011;7126;48.458;7.930;2023-02-28T14:09:35;1.25;;;1.00;;
14098;SDS011;7126;48.458;7.930;2023-02-28T14:18:15;1.23;;;1.23;;
14098;SDS011;7126;48.458;7.930;2023-02-28T14:20:44;0.88;;;0.88;;
14098;SDS011;7126;48.458;7.930;2023-02-28T14:34:36;0.50;;;0.50;;
14098;SDS011;7126;48.458;7.930;2023-02-28T14:37:10;0.73;;;0.73;;
14098;SDS011;7126;48.458;7.930;2023-02-28T14:39:41;1.23;;;0.98;;
14098;SDS011;7126;48.458;7.930;2023-02-28T14:45:24;0.73;;;0.73;;
14098;SDS011;7126;48.458;7.930;2023-02-28T14:47:51;2.47;;;2.28;;
14098;SDS011;7126;48.458;7.930;2023-02-28T14:50:21;0.90;;;0.90;;
14098;SDS011;7126;48.458;7.930;2023-02-28T14:52:57;1.00;;;1.00;;
14098;SDS011;7126;48.458;7.930;2023-02-28T14:55:28;1.73;;;1.55;;
14098;SDS011;7126;48.458;7.930;2023-02-28T14:58:00;1.27;;;1.15;;
14098;SDS011;7126;48.458;7.930;2023-02-28T15:00:30;1.35;;;1.30;;
14098;SDS011;7126;48.458;7.930;2023-02-28T15:02:57;0.88;;;0.88;;
14098;SDS011;7126;48.458;7.930;2023-02-28T15:05:33;2.08;;;1.65;;
14098;SDS011;7126;48.458;7.930;2023-02-28T15:08:01;1.38;;;1.38;;
14098;SDS011;7126;48.458;7.930;2023-02-28T15:10:38;1.08;;;1.00;;
14098;SDS011;7126;48.458;7.930;2023-02-28T15:13:09;1.02;;;1.02;;
14098;SDS011;7126;48.458;7.930;2023-02-28T15:15:54;1.55;;;1.45;;
14098;SDS011;7126;48.458;7.930;2023-02-28T15:21:20;0.95;;;0.93;;
14098;SDS011;7126;48.458;7.930;2023-02-28T15:23:51;1.63;;;1.52;;
14098;SDS011;7126;48.458;7.930;2023-02-28T15:26:24;1.75;;;1.65;;
14098;SDS011;7126;48.458;7.930;2023-02-28T15:28:57;1.13;;;1.13;;
14098;SDS011;7126;48.458;7.930;2023-02-28T15:31:40;1.20;;;1.20;;
14098;SDS011;7126;48.458;7.930;2023-02-28T15:34:19;1.35;;;1.35;;
14098;SDS011;7126;48.458;7.930;2023-02-28T15:36:46;1.00;;;1.00;;
14098;SDS011;7126;48.458;7.930;2023-02-28T15:39:20;1.40;;;1.30;;
14098;SDS011;7126;48.458;7.930;2023-02-28T15:41:48;0.95;;;0.95;;
14098;SDS011;7126;48.458;7.930;2023-02-28T15:44:18;0.70;;;0.70;;
14098;SDS011;7126;48.458;7.930;2023-02-28T15:47:04;1.35;;;1.15;;
14098;SDS011;7126;48.458;7.930;2023-02-28T15:49:54;0.80;;;0.80;;
14098;SDS011;7126;48.458;7.930;2023-02-28T15:52:21;1.05;;;1.05;;
14098;SDS011;7126;48.458;7.930;2023-02-28T15:55:20;1.30;;;1.30;;
14098;SDS011;7126;48.458;7.930;2023-02-28T15:57:48;1.15;;;1.15;;
14098;SDS011;7126;48.458;7.930;2023-02-28T16:00:22;1.25;;;1.15;;
14098;SDS011;7126;48.458;7.930;2023-02-28T16:02:48;0.88;;;0.88;;
14098;SDS011;7126;48.458;7.930;2023-02-28T16:05:22;1.08;;;1.08;;
14098;SDS011;7126;48.458;7.930;2023-02-28T16:07:53;1.13;;;1.13;;
14098;SDS011;7126;48.458;7.930;2023-02-28T16:10:20;1.83;;;1.73;;
14098;SDS011;7126;48.458;7.930;2023-02-28T16:12:48;1.50;;;0.93;;
14098;SDS011;7126;48.458;7.930;2023-02-28T16:15:18;1.15;;;1.15;;
14098;SDS011;7126;48.458;7.930;2023-02-28T16:17:43;1.65;;;1.50;;
14098;SDS011;7126;48.458;7.930;2023-02-28T16:20:43;0.63;;;0.63;;
14098;SDS011;7126;48.458;7.930;2023-02-28T16:23:02;1.10;;;1.10;;
14098;SDS011;7126;48.458;7.930;2023-02-28T16:25:34;1.02;;;1.02;;
14098;SDS011;7126;48.458;7.930;2023-02-28T16:28:06;1.20;;;1.20;;
14098;SDS011;7126;48.458;7.930;2023-02-28T16:30:44;0.88;;;0.88;;
14098;SDS011;7126;48.458;7.930;2023-02-28T16:33:10;1.48;;;1.48;;
14098;SDS011;7126;48.458;7.930;2023-02-28T16:35:36;1.27;;;1.27;;
14098;SDS011;7126;48.458;7.930;2023-02-28T16:38:01;1.85;;;1.77;;
14098;SDS011;7126;48.458;7.930;2023-02-28T16:40:27;1.80;;;1.70;;
14098;SDS011;7126;48.458;7.930;2023-02-28T16:42:55;1.05;;;1.05;;
14098;SDS011;7126;48.458;7.930;2023-02-28T16:45:25;1.40;;;1.40;;
14098;SDS011;7126;48.458;7.930;2023-02-28T16:47:52;2.60;;;1.08;;
14098;SDS011;7126;48.458;7.930;2023-02-28T16:50:22;2.30;;;1.45;;
14098;SDS011;7126;48.458;7.930;2023-02-28T16:52:49;1.08;;;1.08;;
14098;SDS011;7126;48.458;7.930;2023-02-28T16:55:17;1.38;;;1.27;;
14098;SDS011;7126;48.458;7.930;2023-02-28T16:57:43;1.08;;;0.88;;
14098;SDS011;7126;48.458;7.930;2023-02-28T17:00:11;2.10;;;2.00;;
14098;SDS011;7126;48.458;7.930;2023-02-28T17:02:37;1.23;;;1.10;;
14098;SDS011;7126;48.458;7.930;2023-02-28T17:05:03;1.42;;;1.27;;
14098;SDS011;7126;48.458;7.930;2023-02-28T17:07:29;1.35;;;1.27;;
14098;SDS011;7126;48.458;7.930;2023-02-28T17:09:54;1.35;;;1.25;;
14098;SDS011;7126;48.458;7.930;2023-02-28T17:12:20;1.20;;;1.20;;
14098;SDS011;7126;48.458;7.930;2023-02-28T17:14:45;1.67;;;1.58;;
14098;SDS011;7126;48.458;7.930;2023-02-28T17:17:15;1.33;;;1.33;;
14098;SDS011;7126;48.458;7.930;2023-02-28T17:19:44;1.80;;;1.08;;
14098;SDS011;7126;48.458;7.930;2023-02-28T17:22:10;3.03;;;1.92;;
14098;SDS011;7126;48.458;7.930;2023-02-28T17:24:36;1.20;;;1.15;;
14098;SDS011;7126;48.458;7.930;2023-02-28T17:27:02;1.02;;;1.02;;
14098;SDS011;7126;48.458;7.930;2023-02-28T17:29:28;4.78;;;0.75;;
14098;SDS011;7126;48.458;7.930;2023-02-28T17:31:53;1.38;;;1.38;;